sensor_id;sensor_type;location;lat;lon;timestamp;temperature;humidity
2447;DHT22;26430;48.818;9.244;2022-10-18T00:00:55;15.70;99.90
2447;DHT22;26430;48.818;9.244;2022-10-18T00:03:21;15.60;99.90
2447;DHT22;26430;48.818;9.244;2022-10-18T00:05:48;15.60;99.90
2447;DHT22;26430;48.818;9.244;2022-10-18T00:08:14;15.40;99.90
2447;DHT22;26430;48.818;9.244;2022-10-18T00:10:40;15.40;99.90
2447;DHT22;26430;48.818;9.244;2022-10-18T00:13:06;15.30;99.90
2447;DHT22;26430;48.818;9.244;2022-10-18T00:15:31;15.20;99.90
2447;DHT22;26430;48.818;9.244;2022-10-18T00:17:57;15.00;99.90
2447;DHT22;26430;48.818;9.244;2022-10-18T00:20:23;14.90;99.90
2447;DHT22;26430;48.818;9.244;2022-10-18T00:22:48;14.90;99.90
2447;DHT22;26430;48.818;9.244;2022-10-18T00:25:14;14.90;99.90
2447;DHT22;26430;48.818;9.244;2022-10-18T00:27:40;14.90;99.90
2447;DHT22;26430;48.818;9.244;2022-10-18T00:30:06;15.00;99.90
2447;DHT22;26430;48.818;9.244;2022-10-18T00:32:37;15.20;99.90
2447;DHT22;26430;48.818;9.244;2022-10-18T00:35:04;15.30;99.90
2447;DHT22;26430;48.818;9.244;2022-10-18T00:37:30;15.50;99.90
2447;DHT22;26430;48.818;9.244;2022-10-18T00:39:56;15.60;99.90
2447;DHT22;26430;48.818;9.244;2022-10-18T00:42:26;15.50;99.90
2447;DHT22;26430;48.818;9.244;2022-10-18T00:47:58;15.40;99.90
2447;DHT22;26430;48.818;9.244;2022-10-18T00:50:27;15.40;99.90
2447;DHT22;26430;48.818;9.244;2022-10-18T00:52:58;15.50;99.90
2447;DHT22;26430;48.818;9.244;2022-10-18T00:55:27;15.60;99.90
2447;DHT22;26430;48.818;9.244;2022-10-18T00:57:53;15.50;99.90
2447;DHT22;26430;48.818;9.244;2022-10-18T01:00:20;15.40;99.90
2447;DHT22;26430;48.818;9.244;2022-10-18T01:02:46;15.40;99.90
2447;DHT22;26430;48.818;9.244;2022-10-18T01:05:14;15.50;99.90
2447;DHT22;26430;48.818;9.244;2022-10-18T01:16:35;15.80;99.90
2447;DHT22;26430;48.818;9.244;2022-10-18T01:19:30;15.70;99.90
2447;DHT22;26430;48.818;9.244;2022-10-18T01:22:08;15.60;99.90
2447;DHT22;26430;48.818;9.244;2022-10-18T01:30:30;15.90;99.90
2447;DHT22;26430;48.818;9.244;2022-10-18T01:33:02;16.20;99.90
2447;DHT22;26430;48.818;9.244;2022-10-18T01:35:33;16.30;99.90
2447;DHT22;26430;48.818;9.244;2022-10-18T01:38:02;16.20;99.90
2447;DHT22;26430;48.818;9.244;2022-10-18T01:40:30;16.10;99.90
2447;DHT22;26430;48.818;9.244;2022-10-18T01:42:56;16.20;99.90
2447;DHT22;26430;48.818;9.244;2022-10-18T01:45:23;16.30;99.90
2447;DHT22;26430;48.818;9.244;2022-10-18T01:47:50;16.10;99.90
2447;DHT22;26430;48.818;9.244;2022-10-18T01:50:30;16.00;99.90
2447;DHT22;26430;48.818;9.244;2022-10-18T01:53:02;16.10;99.90
2447;DHT22;26430;48.818;9.244;2022-10-18T01:55:37;16.10;99.90
2447;DHT22;26430;48.818;9.244;2022-10-18T02:01:02;16.10;99.90
2447;DHT22;26430;48.818;9.244;2022-10-18T02:03:29;15.90;99.90
2447;DHT22;26430;48.818;9.244;2022-10-18T02:06:05;16.00;99.90
2447;DHT22;26430;48.818;9.244;2022-10-18T02:08:48;16.10;99.90
2447;DHT22;26430;48.818;9.244;2022-10-18T02:11:17;16.20;99.90
2447;DHT22;26430;48.818;9.244;2022-10-18T02:13:44;16.30;99.90
2447;DHT22;26430;48.818;9.244;2022-10-18T02:16:25;16.20;99.90
2447;DHT22;26430;48.818;9.244;2022-10-18T02:19:14;16.20;99.90
2447;DHT22;26430;48.818;9.244;2022-10-18T02:21:43;15.90;99.90
2447;DHT22;26430;48.818;9.244;2022-10-18T02:24:12;16.00;99.90
2447;DHT22;26430;48.818;9.244;2022-10-18T02:26:38;15.80;99.90
2447;DHT22;26430;48.818;9.244;2022-10-18T02:29:04;15.70;99.90
2447;DHT22;26430;48.818;9.244;2022-10-18T02:31:36;15.70;99.90
2447;DHT22;26430;48.818;9.244;2022-10-18T02:34:20;15.50;99.90
2447;DHT22;26430;48.818;9.244;2022-10-18T02:39:38;15.30;99.90
2447;DHT22;26430;48.818;9.244;2022-10-18T02:42:05;15.30;99.90
2447;DHT22;26430;48.818;9.244;2022-10-18T02:44:32;15.30;99.90
2447;DHT22;26430;48.818;9.244;2022-10-18T02:46:58;15.20;99.90
2447;DHT22;26430;48.818;9.244;2022-10-18T02:49:24;15.20;99.90
2447;DHT22;26430;48.818;9.244;2022-10-18T02:51:49;15.30;99.90
2447;DHT22;26430;48.818;9.244;2022-10-18T02:54:15;15.50;99.90
2447;DHT22;26430;48.818;9.244;2022-10-18T02:56:41;15.40;99.90
2447;DHT22;26430;48.818;9.244;2022-10-18T02:59:06;15.40;99.90
2447;DHT22;26430;48.818;9.244;2022-10-18T03:01:35;15.50;99.90
2447;DHT22;26430;48.818;9.244;2022-10-18T03:04:01;15.60;99.90
2447;DHT22;26430;48.818;9.244;2022-10-18T03:06:28;15.60;99.90
2447;DHT22;26430;48.818;9.244;2022-10-18T03:08:53;15.60;99.90
2447;DHT22;26430;48.818;9.244;2022-10-18T03:11:19;15.70;99.90
2447;DHT22;26430;48.818;9.244;2022-10-18T03:13:44;15.60;99.90
2447;DHT22;26430;48.818;9.244;2022-10-18T03:16:11;15.60;99.90
2447;DHT22;26430;48.818;9.244;2022-10-18T03:18:36;15.50;99.90
2447;DHT22;26430;48.818;9.244;2022-10-18T03:21:06;15.50;99.90
2447;DHT22;26430;48.818;9.244;2022-10-18T03:23:32;15.50;99.90
2447;DHT22;26430;48.818;9.244;2022-10-18T03:25:58;15.60;99.90
2447;DHT22;26430;48.818;9.244;2022-10-18T03:28:24;15.60;99.90
2447;DHT22;26430;48.818;9.244;2022-10-18T03:30:49;15.60;99.90
2447;DHT22;26430;48.818;9.244;2022-10-18T03:33:15;15.60;99.90
2447;DHT22;26430;48.818;9.244;2022-10-18T03:35:41;15.60;99.90
2447;DHT22;26430;48.818;9.244;2022-10-18T03:38:07;15.60;99.90
2447;DHT22;26430;48.818;9.244;2022-10-18T03:40:33;15.50;99.90
2447;DHT22;26430;48.818;9.244;2022-10-18T03:42:58;15.50;99.90
2447;DHT22;26430;48.818;9.244;2022-10-18T03:45:24;15.50;99.90
2447;DHT22;26430;48.818;9.244;2022-10-18T03:47:50;15.50;99.90
2447;DHT22;26430;48.818;9.244;2022-10-18T03:50:17;15.60;99.90
2447;DHT22;26430;48.818;9.244;2022-10-18T03:52:42;15.50;99.90
2447;DHT22;26430;48.818;9.244;2022-10-18T03:55:08;15.50;99.90
2447;DHT22;26430;48.818;9.244;2022-10-18T03:57:34;15.40;99.90
2447;DHT22;26430;48.818;9.244;2022-10-18T03:59:59;15.40;99.90
2447;DHT22;26430;48.818;9.244;2022-10-18T04:02:25;15.40;99.90
2447;DHT22;26430;48.818;9.244;2022-10-18T04:04:51;15.40;99.90
2447;DHT22;26430;48.818;9.244;2022-10-18T04:07:17;15.30;99.90
2447;DHT22;26430;48.818;9.244;2022-10-18T04:09:42;15.30;99.90
2447;DHT22;26430;48.818;9.244;2022-10-18T04:12:08;15.30;99.90
2447;DHT22;26430;48.818;9.244;2022-10-18T04:14:34;15.30;99.90
2447;DHT22;26430;48.818;9.244;2022-10-18T04:16:59;15.30;99.90
2447;DHT22;26430;48.818;9.244;2022-10-18T04:19:25;15.30;99.90
2447;DHT22;26430;48.818;9.244;2022-10-18T04:21:52;15.20;99.90
2447;DHT22;26430;48.818;9.244;2022-10-18T04:24:18;15.20;99.90
2447;DHT22;26430;48.818;9.244;2022-10-18T04:26:44;15.20;99.90
2447;DHT22;26430;48.818;9.244;2022-10-18T04:29:09;15.20;99.90
2447;DHT22;26430;48.818;9.244;2022-10-18T04:31:35;15.20;99.90
2447;DHT22;26430;48.818;9.244;2022-10-18T04:34:01;15.20;99.90
2447;DHT22;26430;48.818;9.244;2022-10-18T04:36:29;15.20;99.90
2447;DHT22;26430;48.818;9.244;2022-10-18T04:38:54;15.10;99.90
2447;DHT22;26430;48.818;9.244;2022-10-18T04:41:20;15.00;99.90
2447;DHT22;26430;48.818;9.244;2022-10-18T04:43:46;15.00;99.90
2447;DHT22;26430;48.818;9.244;2022-10-18T04:46:12;15.00;99.90
2447;DHT22;26430;48.818;9.244;2022-10-18T04:48:38;14.90;99.90
2447;DHT22;26430;48.818;9.244;2022-10-18T04:51:04;14.90;99.90
2447;DHT22;26430;48.818;9.244;2022-10-18T04:53:29;14.90;99.90
2447;DHT22;26430;48.818;9.244;2022-10-18T04:55:55;15.10;99.90
2447;DHT22;26430;48.818;9.244;2022-10-18T04:58:21;15.20;99.90
2447;DHT22;26430;48.818;9.244;2022-10-18T05:00:46;15.30;99.90
2447;DHT22;26430;48.818;9.244;2022-10-18T05:03:12;15.40;99.90
2447;DHT22;26430;48.818;9.244;2022-10-18T05:05:38;15.30;99.90
2447;DHT22;26430;48.818;9.244;2022-10-18T05:08:04;15.20;99.90
2447;DHT22;26430;48.818;9.244;2022-10-18T05:10:30;15.30;99.90
2447;DHT22;26430;48.818;9.244;2022-10-18T05:12:56;15.40;99.90
2447;DHT22;26430;48.818;9.244;2022-10-18T05:15:22;15.40;99.90
2447;DHT22;26430;48.818;9.244;2022-10-18T05:17:47;15.50;99.90
2447;DHT22;26430;48.818;9.244;2022-10-18T05:20:13;15.60;99.90
2447;DHT22;26430;48.818;9.244;2022-10-18T05:22:38;15.60;99.90
2447;DHT22;26430;48.818;9.244;2022-10-18T05:25:04;15.60;99.90
2447;DHT22;26430;48.818;9.244;2022-10-18T05:27:30;15.50;99.90
2447;DHT22;26430;48.818;9.244;2022-10-18T05:29:56;15.40;99.90
2447;DHT22;26430;48.818;9.244;2022-10-18T05:32:21;15.60;99.90
2447;DHT22;26430;48.818;9.244;2022-10-18T05:34:47;15.70;99.90
2447;DHT22;26430;48.818;9.244;2022-10-18T05:37:13;15.90;99.90
2447;DHT22;26430;48.818;9.244;2022-10-18T05:39:38;15.90;99.90
2447;DHT22;26430;48.818;9.244;2022-10-18T05:42:04;15.80;99.90
2447;DHT22;26430;48.818;9.244;2022-10-18T05:44:30;15.80;99.90
2447;DHT22;26430;48.818;9.244;2022-10-18T05:46:56;16.00;99.90
2447;DHT22;26430;48.818;9.244;2022-10-18T05:49:21;16.10;99.90
2447;DHT22;26430;48.818;9.244;2022-10-18T05:51:47;15.90;99.90
2447;DHT22;26430;48.818;9.244;2022-10-18T05:54:13;15.90;99.90
2447;DHT22;26430;48.818;9.244;2022-10-18T05:56:39;15.80;99.90
2447;DHT22;26430;48.818;9.244;2022-10-18T05:59:05;15.60;99.90
2447;DHT22;26430;48.818;9.244;2022-10-18T06:01:35;15.60;99.90
2447;DHT22;26430;48.818;9.244;2022-10-18T06:04:00;15.70;99.90
2447;DHT22;26430;48.818;9.244;2022-10-18T06:06:26;15.80;99.90
2447;DHT22;26430;48.818;9.244;2022-10-18T06:08:52;15.80;99.90
2447;DHT22;26430;48.818;9.244;2022-10-18T06:11:18;15.80;99.90
2447;DHT22;26430;48.818;9.244;2022-10-18T06:13:46;15.90;99.90
2447;DHT22;26430;48.818;9.244;2022-10-18T06:16:14;16.10;99.90
2447;DHT22;26430;48.818;9.244;2022-10-18T06:18:40;15.90;99.90
2447;DHT22;26430;48.818;9.244;2022-10-18T06:21:06;15.90;99.90
2447;DHT22;26430;48.818;9.244;2022-10-18T06:23:33;15.80;99.90
2447;DHT22;26430;48.818;9.244;2022-10-18T06:26:00;15.80;99.90
2447;DHT22;26430;48.818;9.244;2022-10-18T06:28:26;15.80;99.90
2447;DHT22;26430;48.818;9.244;2022-10-18T06:30:52;15.80;99.90
2447;DHT22;26430;48.818;9.244;2022-10-18T06:33:17;15.80;99.90
2447;DHT22;26430;48.818;9.244;2022-10-18T06:35:43;15.80;99.90
2447;DHT22;26430;48.818;9.244;2022-10-18T06:38:17;15.80;99.90
2447;DHT22;26430;48.818;9.244;2022-10-18T06:40:43;15.80;99.90
2447;DHT22;26430;48.818;9.244;2022-10-18T06:43:12;16.00;99.90
2447;DHT22;26430;48.818;9.244;2022-10-18T06:45:38;16.10;99.90
2447;DHT22;26430;48.818;9.244;2022-10-18T06:48:04;16.20;99.90
2447;DHT22;26430;48.818;9.244;2022-10-18T06:50:30;16.30;99.90
2447;DHT22;26430;48.818;9.244;2022-10-18T06:52:55;16.40;99.90
2447;DHT22;26430;48.818;9.244;2022-10-18T06:55:21;16.60;99.90
2447;DHT22;26430;48.818;9.244;2022-10-18T06:57:46;16.80;99.90
2447;DHT22;26430;48.818;9.244;2022-10-18T07:00:12;17.00;99.90
2447;DHT22;26430;48.818;9.244;2022-10-18T07:02:38;17.10;99.90
2447;DHT22;26430;48.818;9.244;2022-10-18T07:05:09;17.30;99.90
2447;DHT22;26430;48.818;9.244;2022-10-18T07:07:35;17.20;99.90
2447;DHT22;26430;48.818;9.244;2022-10-18T07:10:01;17.30;99.90
2447;DHT22;26430;48.818;9.244;2022-10-18T07:12:27;17.30;99.90
2447;DHT22;26430;48.818;9.244;2022-10-18T07:14:52;17.30;99.90
2447;DHT22;26430;48.818;9.244;2022-10-18T07:17:19;17.50;99.90
2447;DHT22;26430;48.818;9.244;2022-10-18T07:19:45;17.60;99.90
2447;DHT22;26430;48.818;9.244;2022-10-18T07:22:10;17.40;99.90
2447;DHT22;26430;48.818;9.244;2022-10-18T07:24:36;17.40;99.90
2447;DHT22;26430;48.818;9.244;2022-10-18T07:27:01;17.40;99.90
2447;DHT22;26430;48.818;9.244;2022-10-18T07:29:27;17.60;99.90
2447;DHT22;26430;48.818;9.244;2022-10-18T07:31:52;17.60;99.90
2447;DHT22;26430;48.818;9.244;2022-10-18T07:34:18;17.80;99.90
2447;DHT22;26430;48.818;9.244;2022-10-18T07:36:44;17.80;99.90
2447;DHT22;26430;48.818;9.244;2022-10-18T07:39:09;17.90;99.90
2447;DHT22;26430;48.818;9.244;2022-10-18T07:41:35;17.90;99.90
2447;DHT22;26430;48.818;9.244;2022-10-18T07:44:02;17.70;99.90
2447;DHT22;26430;48.818;9.244;2022-10-18T07:46:28;17.70;99.90
2447;DHT22;26430;48.818;9.244;2022-10-18T07:48:54;17.60;99.90
2447;DHT22;26430;48.818;9.244;2022-10-18T07:51:20;17.60;99.90
2447;DHT22;26430;48.818;9.244;2022-10-18T07:53:46;17.60;99.90
2447;DHT22;26430;48.818;9.244;2022-10-18T07:56:14;17.70;99.90
2447;DHT22;26430;48.818;9.244;2022-10-18T07:58:45;17.70;99.90
2447;DHT22;26430;48.818;9.244;2022-10-18T08:01:12;17.80;99.90
2447;DHT22;26430;48.818;9.244;2022-10-18T08:03:38;17.90;99.90
2447;DHT22;26430;48.818;9.244;2022-10-18T08:06:05;17.90;99.90
2447;DHT22;26430;48.818;9.244;2022-10-18T08:08:33;17.90;99.90
2447;DHT22;26430;48.818;9.244;2022-10-18T08:11:08;18.00;99.90
2447;DHT22;26430;48.818;9.244;2022-10-18T08:13:35;18.00;99.90
2447;DHT22;26430;48.818;9.244;2022-10-18T08:16:07;18.10;99.90
2447;DHT22;26430;48.818;9.244;2022-10-18T08:18:33;18.20;99.90
2447;DHT22;26430;48.818;9.244;2022-10-18T08:20:59;18.30;99.90
2447;DHT22;26430;48.818;9.244;2022-10-18T08:23:25;18.20;99.90
2447;DHT22;26430;48.818;9.244;2022-10-18T08:25:51;18.10;99.90
2447;DHT22;26430;48.818;9.244;2022-10-18T08:28:17;18.00;99.90
2447;DHT22;26430;48.818;9.244;2022-10-18T08:30:42;18.10;99.90
2447;DHT22;26430;48.818;9.244;2022-10-18T08:33:08;18.10;99.90
2447;DHT22;26430;48.818;9.244;2022-10-18T08:35:34;18.10;99.90
2447;DHT22;26430;48.818;9.244;2022-10-18T08:37:59;18.20;99.90
2447;DHT22;26430;48.818;9.244;2022-10-18T08:40:25;18.20;99.90
2447;DHT22;26430;48.818;9.244;2022-10-18T08:45:19;18.40;99.90
2447;DHT22;26430;48.818;9.244;2022-10-18T08:47:47;18.30;99.90
2447;DHT22;26430;48.818;9.244;2022-10-18T08:50:20;18.40;99.90
2447;DHT22;26430;48.818;9.244;2022-10-18T08:58:22;18.50;99.90
2447;DHT22;26430;48.818;9.244;2022-10-18T09:01:43;18.70;99.90
2447;DHT22;26430;48.818;9.244;2022-10-18T09:07:06;19.00;99.90
2447;DHT22;26430;48.818;9.244;2022-10-18T09:12:26;19.30;99.90
2447;DHT22;26430;48.818;9.244;2022-10-18T09:15:09;19.70;99.90
2447;DHT22;26430;48.818;9.244;2022-10-18T09:21:11;21.70;99.90
2447;DHT22;26430;48.818;9.244;2022-10-18T09:25:54;21.60;99.90
2447;DHT22;26430;48.818;9.244;2022-10-18T09:33:44;22.10;99.90
2447;DHT22;26430;48.818;9.244;2022-10-18T09:36:22;23.10;99.90
2447;DHT22;26430;48.818;9.244;2022-10-18T09:38:51;23.70;99.90
2447;DHT22;26430;48.818;9.244;2022-10-18T09:41:34;24.00;99.90
2447;DHT22;26430;48.818;9.244;2022-10-18T09:46:43;23.70;99.90
2447;DHT22;26430;48.818;9.244;2022-10-18T09:49:44;23.40;99.90
2447;DHT22;26430;48.818;9.244;2022-10-18T09:52:38;22.80;99.90
2447;DHT22;26430;48.818;9.244;2022-10-18T09:55:29;22.40;99.90
2447;DHT22;26430;48.818;9.244;2022-10-18T09:57:59;22.80;99.90
2447;DHT22;26430;48.818;9.244;2022-10-18T10:00:50;23.60;99.90
2447;DHT22;26430;48.818;9.244;2022-10-18T10:03:17;23.80;99.90
2447;DHT22;26430;48.818;9.244;2022-10-18T10:05:43;23.90;99.90
2447;DHT22;26430;48.818;9.244;2022-10-18T10:08:09;23.50;99.90
2447;DHT22;26430;48.818;9.244;2022-10-18T10:10:38;23.20;99.90
2447;DHT22;26430;48.818;9.244;2022-10-18T10:13:17;22.60;99.90
2447;DHT22;26430;48.818;9.244;2022-10-18T10:15:59;22.00;99.90
2447;DHT22;26430;48.818;9.244;2022-10-18T10:18:33;21.70;99.90
2447;DHT22;26430;48.818;9.244;2022-10-18T10:21:05;21.70;99.90
2447;DHT22;26430;48.818;9.244;2022-10-18T10:23:44;21.80;99.90
2447;DHT22;26430;48.818;9.244;2022-10-18T10:28:47;22.20;99.90
2447;DHT22;26430;48.818;9.244;2022-10-18T10:31:29;22.60;99.90
2447;DHT22;26430;48.818;9.244;2022-10-18T10:34:24;23.30;99.90
2447;DHT22;26430;48.818;9.244;2022-10-18T10:36:53;23.80;99.90
2447;DHT22;26430;48.818;9.244;2022-10-18T10:39:21;24.30;99.90
2447;DHT22;26430;48.818;9.244;2022-10-18T10:41:49;24.60;99.90
2447;DHT22;26430;48.818;9.244;2022-10-18T10:44:20;24.90;99.90
2447;DHT22;26430;48.818;9.244;2022-10-18T10:46:48;25.10;99.90
2447;DHT22;26430;48.818;9.244;2022-10-18T10:49:22;25.20;99.90
2447;DHT22;26430;48.818;9.244;2022-10-18T10:51:59;24.70;99.90
2447;DHT22;26430;48.818;9.244;2022-10-18T10:54:28;24.70;99.90
2447;DHT22;26430;48.818;9.244;2022-10-18T10:57:15;24.70;99.90
2447;DHT22;26430;48.818;9.244;2022-10-18T10:59:47;24.90;99.90
2447;DHT22;26430;48.818;9.244;2022-10-18T11:04:47;25.30;99.90
2447;DHT22;26430;48.818;9.244;2022-10-18T11:07:23;25.20;99.90
2447;DHT22;26430;48.818;9.244;2022-10-18T11:10:12;25.20;99.90
2447;DHT22;26430;48.818;9.244;2022-10-18T11:15:35;24.10;99.90
2447;DHT22;26430;48.818;9.244;2022-10-18T11:18:25;23.80;99.90
2447;DHT22;26430;48.818;9.244;2022-10-18T11:21:03;23.50;99.90
2447;DHT22;26430;48.818;9.244;2022-10-18T11:23:37;23.20;99.90
2447;DHT22;26430;48.818;9.244;2022-10-18T11:31:38;23.40;99.90
2447;DHT22;26430;48.818;9.244;2022-10-18T11:34:31;23.70;99.90
2447;DHT22;26430;48.818;9.244;2022-10-18T11:37:08;24.10;99.90
2447;DHT22;26430;48.818;9.244;2022-10-18T11:45:13;24.70;99.90
2447;DHT22;26430;48.818;9.244;2022-10-18T11:48:18;24.90;99.90
2447;DHT22;26430;48.818;9.244;2022-10-18T11:51:10;25.10;99.90
2447;DHT22;26430;48.818;9.244;2022-10-18T12:01:40;24.70;99.90
2447;DHT22;26430;48.818;9.244;2022-10-18T12:04:18;24.60;99.90
2447;DHT22;26430;48.818;9.244;2022-10-18T12:06:47;24.50;99.90
2447;DHT22;26430;48.818;9.244;2022-10-18T12:09:31;24.20;99.90
2447;DHT22;26430;48.818;9.244;2022-10-18T12:15:00;23.70;99.90
2447;DHT22;26430;48.818;9.244;2022-10-18T12:17:34;23.40;99.90
2447;DHT22;26430;48.818;9.244;2022-10-18T12:20:06;23.30;99.90
2447;DHT22;26430;48.818;9.244;2022-10-18T12:22:42;23.10;99.90
2447;DHT22;26430;48.818;9.244;2022-10-18T12:25:12;22.80;99.90
2447;DHT22;26430;48.818;9.244;2022-10-18T12:27:43;22.60;99.90
2447;DHT22;26430;48.818;9.244;2022-10-18T12:30:44;22.60;99.90
2447;DHT22;26430;48.818;9.244;2022-10-18T12:33:16;22.50;99.90
2447;DHT22;26430;48.818;9.244;2022-10-18T12:38:36;22.60;99.90
2447;DHT22;26430;48.818;9.244;2022-10-18T12:41:03;22.50;99.90
2447;DHT22;26430;48.818;9.244;2022-10-18T12:43:31;22.50;99.90
2447;DHT22;26430;48.818;9.244;2022-10-18T12:46:04;22.30;99.90
2447;DHT22;26430;48.818;9.244;2022-10-18T12:48:32;22.30;99.90
2447;DHT22;26430;48.818;9.244;2022-10-18T12:51:15;22.30;99.90
2447;DHT22;26430;48.818;9.244;2022-10-18T12:53:44;22.30;99.90
2447;DHT22;26430;48.818;9.244;2022-10-18T13:09:28;22.20;99.90
2447;DHT22;26430;48.818;9.244;2022-10-18T13:15:02;22.10;99.90
2447;DHT22;26430;48.818;9.244;2022-10-18T13:17:40;22.00;99.90
2447;DHT22;26430;48.818;9.244;2022-10-18T13:20:31;22.00;99.90
2447;DHT22;26430;48.818;9.244;2022-10-18T13:26:22;22.10;99.90
2447;DHT22;26430;48.818;9.244;2022-10-18T13:28:56;22.10;99.90
2447;DHT22;26430;48.818;9.244;2022-10-18T13:31:46;22.10;99.90
2447;DHT22;26430;48.818;9.244;2022-10-18T13:37:00;22.00;99.90
2447;DHT22;26430;48.818;9.244;2022-10-18T13:39:27;21.90;99.90
2447;DHT22;26430;48.818;9.244;2022-10-18T13:44:33;21.90;99.90
2447;DHT22;26430;48.818;9.244;2022-10-18T13:49:48;22.00;99.90
2447;DHT22;26430;48.818;9.244;2022-10-18T13:58:20;22.10;99.90
2447;DHT22;26430;48.818;9.244;2022-10-18T14:04:11;22.00;99.90
2447;DHT22;26430;48.818;9.244;2022-10-18T14:06:45;22.00;99.90
2447;DHT22;26430;48.818;9.244;2022-10-18T14:09:20;22.10;99.90
2447;DHT22;26430;48.818;9.244;2022-10-18T14:17:50;22.50;99.90
2447;DHT22;26430;48.818;9.244;2022-10-18T14:20:26;22.70;99.90
2447;DHT22;26430;48.818;9.244;2022-10-18T14:23:00;22.70;99.90
2447;DHT22;26430;48.818;9.244;2022-10-18T14:25:33;22.50;99.90
2447;DHT22;26430;48.818;9.244;2022-10-18T14:30:53;22.30;99.90
2447;DHT22;26430;48.818;9.244;2022-10-18T14:41:22;21.90;99.90
2447;DHT22;26430;48.818;9.244;2022-10-18T14:43:49;21.80;99.90
2447;DHT22;26430;48.818;9.244;2022-10-18T14:46:26;21.80;99.90
2447;DHT22;26430;48.818;9.244;2022-10-18T14:48:57;21.70;99.90
2447;DHT22;26430;48.818;9.244;2022-10-18T14:51:24;21.50;99.90
2447;DHT22;26430;48.818;9.244;2022-10-18T14:53:50;21.50;99.90
2447;DHT22;26430;48.818;9.244;2022-10-18T14:56:31;21.50;99.90
2447;DHT22;26430;48.818;9.244;2022-10-18T14:59:02;21.40;99.90
2447;DHT22;26430;48.818;9.244;2022-10-18T15:01:30;21.30;99.90
2447;DHT22;26430;48.818;9.244;2022-10-18T15:03:58;21.20;99.90
2447;DHT22;26430;48.818;9.244;2022-10-18T15:06:25;21.30;99.90
2447;DHT22;26430;48.818;9.244;2022-10-18T15:09:02;21.30;99.90
2447;DHT22;26430;48.818;9.244;2022-10-18T15:11:31;21.20;99.90
2447;DHT22;26430;48.818;9.244;2022-10-18T15:14:02;21.30;99.90
2447;DHT22;26430;48.818;9.244;2022-10-18T15:16:32;21.20;99.90
2447;DHT22;26430;48.818;9.244;2022-10-18T15:21:58;21.20;99.90
2447;DHT22;26430;48.818;9.244;2022-10-18T15:24:35;21.20;99.90
2447;DHT22;26430;48.818;9.244;2022-10-18T15:27:23;21.20;99.90
2447;DHT22;26430;48.818;9.244;2022-10-18T15:29:50;21.10;99.90
2447;DHT22;26430;48.818;9.244;2022-10-18T15:32:29;21.00;99.90
2447;DHT22;26430;48.818;9.244;2022-10-18T15:35:07;21.00;99.90
2447;DHT22;26430;48.818;9.244;2022-10-18T15:37:43;20.90;99.90
2447;DHT22;26430;48.818;9.244;2022-10-18T15:40:32;20.80;99.90
2447;DHT22;26430;48.818;9.244;2022-10-18T15:45:47;20.70;99.90
2447;DHT22;26430;48.818;9.244;2022-10-18T15:48:19;20.70;99.90
2447;DHT22;26430;48.818;9.244;2022-10-18T15:50:54;20.70;99.90
2447;DHT22;26430;48.818;9.244;2022-10-18T15:55:51;20.60;99.90
2447;DHT22;26430;48.818;9.244;2022-10-18T15:58:18;20.50;99.90
2447;DHT22;26430;48.818;9.244;2022-10-18T16:00:46;20.50;99.90
2447;DHT22;26430;48.818;9.244;2022-10-18T16:03:14;20.50;99.90
2447;DHT22;26430;48.818;9.244;2022-10-18T16:05:40;20.50;99.90
2447;DHT22;26430;48.818;9.244;2022-10-18T16:08:14;20.40;99.90
2447;DHT22;26430;48.818;9.244;2022-10-18T16:10:40;20.30;99.90
2447;DHT22;26430;48.818;9.244;2022-10-18T16:13:06;20.20;99.90
2447;DHT22;26430;48.818;9.244;2022-10-18T16:15:32;20.10;99.90
2447;DHT22;26430;48.818;9.244;2022-10-18T16:17:57;20.10;99.90
2447;DHT22;26430;48.818;9.244;2022-10-18T16:20:24;20.00;99.90
2447;DHT22;26430;48.818;9.244;2022-10-18T16:22:49;20.10;99.90
2447;DHT22;26430;48.818;9.244;2022-10-18T16:25:15;20.00;99.90
2447;DHT22;26430;48.818;9.244;2022-10-18T16:27:41;20.00;99.90
2447;DHT22;26430;48.818;9.244;2022-10-18T16:30:13;20.00;99.90
2447;DHT22;26430;48.818;9.244;2022-10-18T16:32:39;20.00;99.90
2447;DHT22;26430;48.818;9.244;2022-10-18T16:35:05;20.10;99.90
2447;DHT22;26430;48.818;9.244;2022-10-18T16:37:32;20.00;99.90
2447;DHT22;26430;48.818;9.244;2022-10-18T16:39:58;20.00;99.90
2447;DHT22;26430;48.818;9.244;2022-10-18T16:42:23;20.00;99.90
2447;DHT22;26430;48.818;9.244;2022-10-18T16:44:49;19.80;99.90
2447;DHT22;26430;48.818;9.244;2022-10-18T16:47:15;19.80;99.90
2447;DHT22;26430;48.818;9.244;2022-10-18T16:49:41;19.70;99.90
2447;DHT22;26430;48.818;9.244;2022-10-18T16:52:08;19.70;99.90
2447;DHT22;26430;48.818;9.244;2022-10-18T16:54:33;19.70;99.90
2447;DHT22;26430;48.818;9.244;2022-10-18T16:57:00;19.60;99.90
2447;DHT22;26430;48.818;9.244;2022-10-18T16:59:28;19.50;99.90
2447;DHT22;26430;48.818;9.244;2022-10-18T17:01:53;19.60;99.90
2447;DHT22;26430;48.818;9.244;2022-10-18T17:04:19;19.60;99.90
2447;DHT22;26430;48.818;9.244;2022-10-18T17:06:45;19.50;99.90
2447;DHT22;26430;48.818;9.244;2022-10-18T17:09:13;19.40;99.90
2447;DHT22;26430;48.818;9.244;2022-10-18T17:11:39;19.40;99.90
2447;DHT22;26430;48.818;9.244;2022-10-18T17:14:04;19.50;99.90
2447;DHT22;26430;48.818;9.244;2022-10-18T17:16:32;19.40;99.90
2447;DHT22;26430;48.818;9.244;2022-10-18T17:19:01;19.40;99.90
2447;DHT22;26430;48.818;9.244;2022-10-18T17:21:28;19.30;99.90
2447;DHT22;26430;48.818;9.244;2022-10-18T17:23:55;19.40;99.90
2447;DHT22;26430;48.818;9.244;2022-10-18T17:26:30;19.30;99.90
2447;DHT22;26430;48.818;9.244;2022-10-18T17:29:04;19.30;99.90
2447;DHT22;26430;48.818;9.244;2022-10-18T17:31:31;19.20;99.90
2447;DHT22;26430;48.818;9.244;2022-10-18T17:33:57;19.20;99.90
2447;DHT22;26430;48.818;9.244;2022-10-18T17:36:25;19.30;99.90
2447;DHT22;26430;48.818;9.244;2022-10-18T17:38:52;19.10;99.90
2447;DHT22;26430;48.818;9.244;2022-10-18T17:41:19;19.10;99.90
2447;DHT22;26430;48.818;9.244;2022-10-18T17:43:44;19.20;99.90
2447;DHT22;26430;48.818;9.244;2022-10-18T17:46:12;19.20;99.90
2447;DHT22;26430;48.818;9.244;2022-10-18T17:48:39;19.10;99.90
2447;DHT22;26430;48.818;9.244;2022-10-18T17:51:09;19.10;99.90
2447;DHT22;26430;48.818;9.244;2022-10-18T17:53:35;19.00;99.90
2447;DHT22;26430;48.818;9.244;2022-10-18T17:56:02;18.90;99.90
2447;DHT22;26430;48.818;9.244;2022-10-18T17:58:27;18.80;99.90
2447;DHT22;26430;48.818;9.244;2022-10-18T18:00:53;18.70;99.90
2447;DHT22;26430;48.818;9.244;2022-10-18T18:03:19;18.60;99.90
2447;DHT22;26430;48.818;9.244;2022-10-18T18:05:45;18.50;99.90
2447;DHT22;26430;48.818;9.244;2022-10-18T18:08:12;18.40;99.90
2447;DHT22;26430;48.818;9.244;2022-10-18T18:10:38;18.40;99.90
2447;DHT22;26430;48.818;9.244;2022-10-18T18:13:03;18.30;99.90
2447;DHT22;26430;48.818;9.244;2022-10-18T18:15:29;18.30;99.90
2447;DHT22;26430;48.818;9.244;2022-10-18T18:17:55;18.20;99.90
2447;DHT22;26430;48.818;9.244;2022-10-18T18:20:21;18.10;99.90
2447;DHT22;26430;48.818;9.244;2022-10-18T18:22:49;18.10;99.90
2447;DHT22;26430;48.818;9.244;2022-10-18T18:25:15;18.00;99.90